Detall de PIREP

Printer-friendly versionPDF version

[2009/01/01 21:33:00]
Flight IATA:CT3111
Pilot Number:011
Company ICAO:CAT
Aircraft Type:B738/F
PAX:160
Departing Airport: LEPA
Destination Airport: LEBL
Alternate Airport:LEPA
Online: VATSIM
Route:ESPOR W2 NEPAL
Flight Level:FL160
No Slew and time accel
No pause
Crash detect
Detect pilot in Cockpit between each 30 and 45 minutes
21:33 Zero fuel Weight: 133300 Lbs, Fuel Weight: 13818 Lbs
21:33 VATSIM:LEPA 012100Z 00000KT 9999 FEW018 10/09 Q1020 NOSIG
21:33 VATSIM:LEBL 012100Z 32006KT 260V350 9999 FEW018 SCT030 11/08 Q1020 NOSIG
21:34 Parking Brakes off
21:46 Take-off
21:46 Take off Weight: 146074 Lbs
21:46 Wind: 328 @ 000 Knots Heading: 238
21:46 POS N39 32 41 E002 44 20
21:46 Flaps:4 at 219 Knots
21:46 Gear Up: 222 Knots
21:47 Gear Down: 265 Knots
21:47 Gear Up: 259 Knots
21:47 Flaps:3 at 256 Knots
21:47 Flaps:2 at 254 Knots
21:47 Flaps:1 at 255 Kno
ts
21:47 Flaps:0 at 254 Knots
21:58 TOC
21:58 Fuel Weight: 10848 Lb
22:01 Wind:323@007 Knots Heading: 342 Ground Speed: 391 Knots Altitude 16190 ft
22:01 TOD
22:01 Fuel Weight: 10409 Lb
22:13 Flaps:2 at 226 Knots
22:14 Flaps:4 at 214 Knots
22:14 Flaps:5 at 205 Knots
22:15 Flaps:8 at 194 Knots
22:15 Flaps:7 at 194 Knots
22:15 Flaps:5 at 193 Knots
22:15 Flaps:6 at 190 Knots
22:15 Gear Down: 187 Knots
22:15 Flaps:7 at 168 Knots
22:16 Wind:319@004 Knots Heading: 243 Ground Speed: 161 Knots Altitude 1909 ft
22:16 Flaps:8 at 156 Knots
22:18 TouchDown:Rate -289 ft/min Speed: 123 Knots
22:18 VATSIM:LEBL 012200Z 34008KT 9999 FEW018 SCT030 11/07 Q1020 NOSIG
22:18 Land
22:18 Wind:283@004 Knots
22:18 Heading: 247
22:18 Flight Duration: 00:32
22:18 Landing Weight: 142820 Lbs
22:18 POS N41 17 54 E002 04 57
22:23 Parking brakes on
22:23 Block to Blo
ck Duration: 00:49
22:23 Final Fuel: 9160 Lbls
22:23 Spent Fuel: 4658 Lbls
22:23 Flight Length: 69 NM
22:23 TOD Land Length: 36 NM

Exportar CSV

Powered by Drupal - Modified by Danger4k